Time;durP1;ratioP1;P1;durP2;ratioP2;P2;SDS_P1;SDS_P2;PMS_P1;PMS_P2;Temp;Humidity;BMP_temperature;BMP_pressure;BME280_temperature;BME280_humidity;BME280_pressure;Samples;Min_cycle;Max_cycle;Signal;HPM_P1;HPM_P2
2021/12/12 00:02:07;;;;;;;64.28;32.20;;;;;;;23.69;16.95;98586.13;4990541;28;20575;-79
2021/12/12 00:04:37;;;;;;;65.05;33.60;;;;;;;23.35;17.44;98592.53;4994356;28;20053;-79
2021/12/12 00:07:09;;;;;;;74.38;35.92;;;;;;;22.98;17.73;98595.28;4990241;28;20039;-79
2021/12/12 00:09:46;;;;;;;74.30;34.88;;;;;;;23.00;17.84;98604.06;4991141;28;20041;-79
2021/12/12 00:12:25;;;;;;;73.53;34.80;;;;;;;22.74;17.94;98610.28;4994011;28;20363;-79
2021/12/12 00:14:52;;;;;;;70.05;33.85;;;;;;;22.77;17.91;98615.06;4993259;28;20486;-79
2021/12/12 00:17:19;;;;;;;75.57;34.88;;;;;;;22.89;17.86;98622.16;4993555;28;20502;-79
2021/12/12 00:19:46;;;;;;;70.53;35.20;;;;;;;22.80;17.85;98619.03;4994068;28;20449;-79
2021/12/12 00:22:18;;;;;;;75.03;37.13;;;;;;;22.89;17.87;98622.16;4993438;28;20035;-79
2021/12/12 00:24:45;;;;;;;76.70;37.00;;;;;;;23.11;17.76;98624.34;4993880;28;20121;-79
2021/12/12 00:27:11;;;;;;;71.75;35.95;;;;;;;23.07;17.63;98623.59;4993426;28;20494;-79
2021/12/12 00:29:37;;;;;;;79.28;38.55;;;;;;;22.89;18.01;98636.16;4993369;28;20034;-79
2021/12/12 00:32:09;;;;;;;84.13;38.67;;;;;;;22.60;18.10;98638.34;4993667;28;20560;-79
2021/12/12 00:34:44;;;;;;;83.50;38.50;;;;;;;22.67;18.07;98635.53;4993938;28;20030;-79
2021/12/12 00:37:11;;;;;;;87.95;38.53;;;;;;;22.57;18.36;98633.56;4993928;28;20367;-79
2021/12/12 00:39:41;;;;;;;80.38;39.47;;;;;;;22.51;18.28;98630.44;4993397;28;20058;-79
2021/12/12 00:42:11;;;;;;;69.63;35.72;;;;;;;22.46;18.44;98642.03;4993428;28;20550;-79
2021/12/12 00:44:40;;;;;;;80.35;37.88;;;;;;;22.71;17.97;98644.69;4975952;28;20034;-79
2021/12/12 00:47:09;;;;;;;87.10;40.45;;;;;;;22.39;18.25;98647.69;4993378;28;20073;-79
2021/12/12 00:49:38;;;;;;;78.60;39.33;;;;;;;22.52;18.24;98640.41;4993659;28;20100;-79
2021/12/12 00:52:12;;;;;;;87.72;40.08;;;;;;;22.04;18.55;98645.06;4995535;28;20117;-79
2021/12/12 00:54:40;;;;;;;85.72;38.25;;;;;;;21.87;18.86;98640.34;4997515;28;20030;-79
2021/12/12 00:57:10;;;;;;;79.97;39.45;;;;;;;22.08;18.61;98647.88;4997015;28;20061;-79
2021/12/12 00:59:37;;;;;;;67.83;35.00;;;;;;;22.39;18.39;98646.88;4996981;28;20038;-79
2021/12/12 01:02:09;;;;;;;89.75;39.88;;;;;;;22.47;18.16;98654.03;4979529;28;20286;-79
2021/12/12 01:04:42;;;;;;;79.18;40.00;;;;;;;22.09;18.64;98647.47;4997081;28;20045;-79
2021/12/12 01:07:13;;;;;;;85.70;40.42;;;;;;;21.86;18.81;98644.38;4982143;28;20483;-79
2021/12/12 01:09:44;;;;;;;76.43;36.95;;;;;;;21.65;18.98;98650.81;4982915;28;20030;-79
2021/12/12 01:12:13;;;;;;;69.80;33.50;;;;;;;21.76;18.80;98656.34;4996985;28;20077;-79
2021/12/12 01:14:42;;;;;;;76.97;39.22;;;;;;;22.22;18.58;98656.97;4996439;28;20023;-79
2021/12/12 01:17:21;;;;;;;88.03;42.20;;;;;;;22.41;18.24;98652.88;4996906;28;20399;-79
2021/12/12 01:19:55;;;;;;;86.18;39.35;;;;;;;22.23;18.19;98663.38;4997251;28;20477;-79
2021/12/12 01:22:29;;;;;;;80.60;36.13;;;;;;;22.67;17.98;98664.31;4996762;28;20100;-79
2021/12/12 01:24:59;;;;;;;75.13;36.97;;;;;;;23.17;17.53;98658.34;4997507;28;20030;-79
2021/12/12 01:27:26;;;;;;;73.73;36.47;;;;;;;23.57;17.11;98660.34;4996464;28;20180;-79
2021/12/12 01:29:52;;;;;;;73.28;35.65;;;;;;;23.67;16.96;98661.44;4996201;28;20108;-79
2021/12/12 01:32:27;;;;;;;72.35;35.05;;;;;;;24.02;16.88;98664.63;4996587;28;20165;-79
2021/12/12 01:34:56;;;;;;;67.68;33.92;;;;;;;24.24;16.64;98670.00;4997144;28;20406;-79
2021/12/12 01:40:16;;;;;;;76.97;37.92;;;;;;;24.35;16.54;98659.44;4996342;28;20042;-79
2021/12/12 01:43:05;;;;;;;77.40;37.80;;;;;;;24.31;16.31;98667.91;4996450;28;20030;-79
2021/12/12 01:45:39;;;;;;;64.20;32.08;;;;;;;24.44;16.35;98671.72;4996227;28;20129;-79
2021/12/12 01:48:17;;;;;;;61.17;31.77;;;;;;;24.57;16.39;98657.91;4996244;28;20046;-79
2021/12/12 01:50:53;;;;;;;68.75;33.42;;;;;;;24.63;16.14;98656.22;4996076;28;20066;-79
2021/12/12 01:53:24;;;;;;;78.50;37.78;;;;;;;24.14;16.60;98663.31;4996242;28;20541;-79
2021/12/12 01:56:02;;;;;;;68.85;34.17;;;;;;;24.01;16.65;98659.47;4995998;28;20080;-79
2021/12/12 01:58:31;;;;;;;76.05;36.17;;;;;;;23.67;16.88;98662.25;4994449;28;20398;-79
2021/12/12 02:01:09;;;;;;;71.63;35.45;;;;;;;23.38;17.12;98653.31;4996030;28;20485;-79
2021/12/12 02:03:38;;;;;;;68.93;32.75;;;;;;;22.97;17.75;98649.69;4993158;28;20045;-79
2021/12/12 02:06:08;;;;;;;65.68;33.47;;;;;;;22.97;17.68;98652.50;4995434;28;20034;-79
2021/12/12 02:08:36;;;;;;;63.80;31.45;;;;;;;23.13;17.87;98649.16;4990210;28;20038;-79
2021/12/12 02:11:09;;;;;;;62.80;31.33;;;;;;;23.48;17.26;98643.22;4995806;28;20134;-79
2021/12/12 02:13:40;;;;;;;65.18;30.58;;;;;;;23.75;17.11;98652.56;4995850;28;20033;-79
2021/12/12 02:16:08;;;;;;;59.67;31.05;;;;;;;23.55;17.08;98653.59;4996017;28;20050;-79
2021/12/12 02:18:39;;;;;;;65.43;33.38;;;;;;;23.24;17.12;98650.63;4995604;28;20042;-79
2021/12/12 02:21:26;;;;;;;63.80;30.50;;;;;;;23.31;17.27;98661.00;4995177;28;20513;-79
2021/12/12 02:35:30;;;;;;;73.95;33.67;;;;;;;24.30;16.50;98666.31;4976285;28;20041;-79
2021/12/12 02:37:59;;;;;;;67.95;32.22;;;;;;;24.09;16.40;98666.59;4976656;28;20034;-80
2021/12/12 02:40:34;;;;;;;70.10;34.13;;;;;;;23.91;16.55;98672.38;4988841;28;20534;-79
2021/12/12 02:43:01;;;;;;;72.78;34.70;;;;;;;23.81;16.67;98675.31;4995548;28;20034;-79
2021/12/12 02:45:31;;;;;;;66.93;31.55;;;;;;;23.57;16.81;98676.38;4995103;28;20041;-79
2021/12/12 02:48:01;;;;;;;68.85;31.95;;;;;;;23.57;16.87;98679.19;4995076;28;20022;-80
2021/12/12 02:50:41;;;;;;;73.13;32.55;;;;;;;23.57;16.68;98677.16;4995012;28;20050;-79
2021/12/12 02:53:13;;;;;;;64.70;30.50;;;;;;;23.19;17.12;98676.31;4977615;28;20089;-79
2021/12/12 02:55:48;;;;;;;64.88;32.05;;;;;;;23.15;17.28;98674.75;4976984;28;20577;-79
2021/12/12 02:58:20;;;;;;;67.53;30.35;;;;;;;22.95;17.24;98677.31;4993662;28;20394;-79
2021/12/12 03:01:11;;;;;;;67.50;30.88;;;;;;;22.89;17.29;98687.38;4994856;28;20521;-79
2021/12/12 03:03:38;;;;;;;63.45;29.80;;;;;;;22.30;17.81;98686.50;4986567;28;20372;-79
2021/12/12 03:06:10;;;;;;;67.47;31.05;;;;;;;22.15;17.98;98687.75;4989472;28;20038;-80
2021/12/12 03:08:39;;;;;;;59.58;29.35;;;;;;;21.98;18.14;98702.63;4993491;28;20046;-79
2021/12/12 03:11:06;;;;;;;61.95;29.98;;;;;;;21.81;18.18;98703.44;4994386;28;20077;-79
2021/12/12 03:13:32;;;;;;;58.25;30.23;;;;;;;21.76;18.24;98701.06;4994202;28;20034;-79
2021/12/12 03:15:59;;;;;;;59.78;28.60;;;;;;;21.50;18.53;98710.69;4994424;28;20038;-79
2021/12/12 03:18:30;;;;;;;56.40;30.17;;;;;;;21.20;18.65;98707.53;4994905;28;20092;-79
2021/12/12 03:21:01;;;;;;;60.03;29.67;;;;;;;21.31;18.82;98705.53;4994397;28;20026;-79
2021/12/12 03:23:34;;;;;;;59.90;29.02;;;;;;;20.47;19.33;98709.81;4994506;28;20081;-79
2021/12/12 03:26:07;;;;;;;52.78;23.63;;;;;;;20.75;19.17;98716.66;4994217;28;20044;-79
2021/12/12 03:28:37;;;;;;;63.67;29.35;;;;;;;20.91;18.88;98711.50;4994498;28;20046;-79
2021/12/12 03:31:10;;;;;;;65.10;30.42;;;;;;;20.91;18.82;98712.28;4994134;28;20158;-79
2021/12/12 03:33:36;;;;;;;70.90;32.78;;;;;;;20.91;18.75;98723.44;4994524;28;20026;-79
2021/12/12 03:36:07;;;;;;;58.08;29.38;;;;;;;21.04;18.79;98713.53;4994580;28;20042;-79
2021/12/12 03:38:36;;;;;;;57.35;28.65;;;;;;;21.19;18.56;98715.13;4993912;28;20116;-79
2021/12/12 03:41:07;;;;;;;59.50;28.55;;;;;;;21.10;18.60;98714.72;4993902;28;20116;-79
2021/12/12 03:43:34;;;;;;;51.75;26.20;;;;;;;21.61;18.20;98710.69;4994105;28;20394;-79
2021/12/12 03:46:02;;;;;;;55.72;26.52;;;;;;;21.90;17.94;98709.44;4993934;28;20089;-79
2021/12/12 03:48:31;;;;;;;49.10;24.40;;;;;;;21.27;18.42;98707.53;4994024;28;20042;-79
2021/12/12 03:51:01;;;;;;;60.13;27.60;;;;;;;21.15;18.52;98711.53;4994187;28;20129;-79
2021/12/12 03:53:29;;;;;;;54.25;26.15;;;;;;;20.83;18.75;98724.66;4989546;28;20049;-79
2021/12/12 03:55:56;;;;;;;62.00;30.13;;;;;;;20.55;19.23;98730.16;4993920;28;20041;-79
2021/12/12 03:58:23;;;;;;;59.92;28.17;;;;;;;20.72;19.03;98731.41;4993905;28;20030;-79
2021/12/12 04:01:02;;;;;;;59.17;27.42;;;;;;;20.84;19.00;98740.19;4994008;28;20030;-79
2021/12/12 04:03:29;;;;;;;56.20;26.55;;;;;;;21.32;18.51;98737.88;4981227;28;20034;-79
2021/12/12 04:06:03;;;;;;;59.97;28.05;;;;;;;21.82;18.06;98727.41;4993536;28;20084;-79
2021/12/12 04:08:38;;;;;;;55.00;26.38;;;;;;;21.72;18.02;98733.81;4993779;28;20036;-79
2021/12/12 04:11:14;;;;;;;59.45;28.95;;;;;;;21.57;18.21;98735.84;4993724;28;20018;-79
2021/12/12 04:13:43;;;;;;;56.53;26.27;;;;;;;21.49;18.39;98739.06;4993862;28;20121;-79
2021/12/12 04:16:10;;;;;;;52.90;27.42;;;;;;;21.75;18.04;98738.63;4994097;28;20429;-79
2021/12/12 04:18:37;;;;;;;57.63;27.30;;;;;;;22.05;17.63;98730.56;4993737;28;20070;-79
2021/12/12 04:21:04;;;;;;;50.40;26.23;;;;;;;22.30;17.38;98736.06;4993490;28;20383;-79
2021/12/12 04:23:30;;;;;;;54.53;25.85;;;;;;;22.19;17.54;98738.91;4993558;28;20101;-79
2021/12/12 04:26:17;;;;;;;58.10;26.48;;;;;;;22.19;17.43;98732.53;4994101;28;20391;-79
2021/12/12 04:28:44;;;;;;;55.58;25.73;;;;;;;21.93;17.79;98733.81;4987835;28;20046;-79
2021/12/12 04:31:10;;;;;;;59.15;29.52;;;;;;;21.76;17.88;98731.81;4997577;28;20027;-79
2021/12/12 04:33:36;;;;;;;57.45;26.08;;;;;;;21.93;17.64;98739.41;4997568;28;20030;-79
2021/12/12 04:36:04;;;;;;;53.58;27.63;;;;;;;22.56;17.64;98738.34;4996421;28;20022;-79
2021/12/12 04:38:30;;;;;;;56.50;27.58;;;;;;;22.97;16.80;98744.09;4997143;28;20042;-78
2021/12/12 04:40:56;;;;;;;51.83;26.25;;;;;;;22.84;16.70;98745.81;4997460;28;20042;-79
2021/12/12 04:43:22;;;;;;;57.75;25.80;;;;;;;23.07;16.83;98744.03;4997499;28;20394;-79
2021/12/12 04:46:06;;;;;;;60.50;30.02;;;;;;;23.30;16.71;98746.25;4995990;28;20049;-79
2021/12/12 04:51:48;;;;;;;48.17;23.25;;;;;;;23.68;16.21;98742.34;4993215;28;20061;-79
2021/12/12 04:54:34;;;;;;;58.42;27.35;;;;;;;23.83;15.98;98763.41;4997303;28;20466;-79
2021/12/12 04:57:05;;;;;;;51.63;25.02;;;;;;;24.03;15.96;98770.03;4997006;28;20039;-79
2021/12/12 04:59:56;;;;;;;47.63;21.23;;;;;;;24.19;15.69;98769.47;4995864;28;20037;-79
2021/12/12 05:02:25;;;;;;;;;;;;;;;24.28;15.47;98771.78;4978362;28;20400;-79
2021/12/12 05:04:58;;;;;;;48.00;23.50;;;;;;;24.32;15.57;98773.31;4986175;28;20000;-79
2021/12/12 05:07:34;;;;;;;50.13;25.38;;;;;;;24.13;15.80;98782.38;4996767;28;20069;-79
2021/12/12 05:10:31;;;;;;;45.35;24.98;;;;;;;23.88;15.94;98784.59;4997016;28;20081;-79
2021/12/12 05:13:10;;;;;;;39.10;19.38;;;;;;;23.46;16.33;98791.41;4984055;28;20045;-79
2021/12/12 05:15:46;;;;;;;48.17;22.73;;;;;;;22.89;16.96;98792.97;4997166;28;20035;-79
2021/12/12 05:18:28;;;;;;;45.92;20.95;;;;;;;22.77;17.01;98797.03;4995407;28;20050;-79
2021/12/12 05:21:04;;;;;;;50.83;25.63;;;;;;;22.81;17.19;98795.00;4996133;28;20038;-79
2021/12/12 05:23:32;;;;;;;52.58;25.58;;;;;;;23.27;16.75;98806.72;4996638;28;20081;-79
2021/12/12 05:26:05;;;;;;;44.50;22.98;;;;;;;23.57;16.45;98808.91;4996631;28;20031;-79
2021/12/12 05:28:35;;;;;;;46.95;23.92;;;;;;;23.97;16.33;98799.72;4995395;28;20106;-79
2021/12/12 05:31:04;;;;;;;50.03;24.50;;;;;;;24.12;16.09;98810.84;4995330;28;20109;-79
2021/12/12 05:33:31;;;;;;;44.75;22.17;;;;;;;24.27;15.90;98815.09;4996635;28;20030;-79
2021/12/12 05:35:58;;;;;;;44.50;21.42;;;;;;;24.44;15.96;98808.47;4996341;28;20084;-79
2021/12/12 05:38:26;;;;;;;42.10;20.20;;;;;;;24.55;15.61;98809.94;4996167;28;20110;-79
2021/12/12 05:40:53;;;;;;;37.22;18.50;;;;;;;24.57;15.95;98820.75;4996605;28;20469;-79
2021/12/12 05:43:20;;;;;;;40.60;21.45;;;;;;;24.16;15.80;98831.22;4996440;28;20467;-79
2021/12/12 05:45:47;;;;;;;52.00;26.33;;;;;;;23.44;16.59;98827.44;4994456;28;20030;-79
2021/12/12 05:48:14;;;;;;;53.20;24.13;;;;;;;23.27;16.72;98828.34;4996135;28;20137;-80
2021/12/12 05:50:41;;;;;;;39.58;20.85;;;;;;;23.55;16.49;98830.97;4995810;28;20101;-79
2021/12/12 05:53:08;;;;;;;49.80;23.75;;;;;;;23.49;16.32;98835.41;4996327;28;20049;-79
2021/12/12 05:55:37;;;;;;;44.42;22.73;;;;;;;23.27;16.48;98839.53;4996020;28;20026;-79
2021/12/12 05:58:07;;;;;;;45.53;23.33;;;;;;;23.19;16.38;98850.03;4996174;28;20422;-79
2021/12/12 06:00:42;;;;;;;42.53;21.83;;;;;;;22.94;16.66;98854.94;4981047;28;20030;-79
2021/12/12 06:03:11;;;;;;;44.97;22.67;;;;;;;23.08;16.83;98840.09;4986296;28;20062;-79
2021/12/12 06:05:38;;;;;;;45.75;22.17;;;;;;;23.40;16.44;98846.31;4978418;28;20398;-80
2021/12/12 06:08:06;;;;;;;48.05;21.08;;;;;;;23.67;16.20;98838.88;4995842;28;20030;-79
2021/12/12 06:10:35;;;;;;;46.42;21.10;;;;;;;23.84;16.04;98840.75;4995355;28;20030;-79
2021/12/12 06:13:03;;;;;;;53.15;22.45;;;;;;;24.30;15.73;98845.91;4995864;28;20038;-79
2021/12/12 06:15:30;;;;;;;51.03;20.70;;;;;;;24.62;15.66;98854.78;4995183;28;20089;-80
2021/12/12 06:17:58;;;;;;;42.03;18.17;;;;;;;24.82;15.35;98849.34;4995456;28;20041;-80
2021/12/12 06:20:27;;;;;;;40.42;17.80;;;;;;;24.92;15.13;98850.44;4995160;28;20478;-79
2021/12/12 06:22:54;;;;;;;34.85;17.58;;;;;;;24.86;15.23;98850.09;4995658;28;20045;-79
2021/12/12 06:25:21;;;;;;;35.58;17.15;;;;;;;24.90;15.31;98852.88;4995643;28;20034;-79
2021/12/12 06:27:47;;;;;;;30.38;16.00;;;;;;;24.65;15.44;98867.19;4992193;28;20066;-79
2021/12/12 06:30:19;;;;;;;41.03;18.70;;;;;;;24.68;15.46;98860.72;4994777;28;20368;-79
2021/12/12 06:32:46;;;;;;;32.80;15.48;;;;;;;24.72;15.23;98851.06;4995391;28;20030;-79
2021/12/12 06:35:14;;;;;;;34.22;16.95;;;;;;;24.25;16.00;98856.81;4995321;28;20035;-79
2021/12/12 06:37:42;;;;;;;33.83;15.32;;;;;;;24.07;16.17;98858.97;4995079;28;20053;-79
2021/12/12 06:40:13;;;;;;;32.53;14.85;;;;;;;24.14;16.00;98851.31;4995471;28;20045;-79
2021/12/12 06:42:40;;;;;;;37.45;16.40;;;;;;;24.46;15.68;98845.34;4995374;28;20034;-79
2021/12/12 06:45:10;;;;;;;31.30;16.90;;;;;;;24.59;15.52;98838.78;4994857;28;20030;-79
2021/12/12 06:47:36;;;;;;;37.42;17.77;;;;;;;24.30;15.60;98845.13;4994903;28;20081;-79
2021/12/12 06:50:04;;;;;;;36.92;17.80;;;;;;;24.17;15.83;98850.47;4994315;28;20426;-79
2021/12/12 06:52:31;;;;;;;34.28;16.05;;;;;;;24.02;16.09;98848.97;4994966;28;20060;-80
2021/12/12 06:54:58;;;;;;;28.50;15.13;;;;;;;24.13;15.98;98846.13;4994674;28;20060;-79
2021/12/12 06:57:24;;;;;;;27.38;14.45;;;;;;;24.42;15.72;98850.19;4976571;28;20050;-79
2021/12/12 06:59:52;;;;;;;31.95;16.27;;;;;;;23.90;16.22;98857.91;4975717;28;20454;-79
2021/12/12 07:02:21;;;;;;;39.83;17.27;;;;;;;23.96;16.26;98845.03;4975284;28;20031;-80
2021/12/12 07:04:48;;;;;;;34.45;16.75;;;;;;;24.34;15.87;98849.47;4975379;28;20034;-79
2021/12/12 07:07:17;;;;;;;36.10;16.05;;;;;;;24.58;15.69;98845.59;4975304;28;20477;-79
2021/12/12 07:09:45;;;;;;;35.03;16.15;;;;;;;24.67;15.25;98842.28;4975258;28;20041;-79
2021/12/12 07:12:14;;;;;;;31.92;15.07;;;;;;;24.61;15.61;98846.78;4983534;28;20141;-79
2021/12/12 07:14:41;;;;;;;35.08;16.92;;;;;;;24.72;15.34;98844.63;4994737;28;20034;-80
2021/12/12 07:17:09;;;;;;;33.28;15.60;;;;;;;24.67;15.56;98842.28;4994396;28;20045;-80
2021/12/12 07:19:37;;;;;;;32.15;16.30;;;;;;;24.84;15.36;98848.94;4994832;28;20050;-80
2021/12/12 07:22:04;;;;;;;33.63;16.17;;;;;;;24.76;15.50;98845.44;4992932;28;20034;-79
2021/12/12 07:24:31;;;;;;;39.33;18.52;;;;;;;24.23;15.93;98842.38;4994825;28;20038;-79
2021/12/12 07:27:01;;;;;;;33.05;17.10;;;;;;;23.87;16.45;98847.53;4992319;28;20050;-79
2021/12/12 07:29:28;;;;;;;34.50;15.65;;;;;;;23.94;16.48;98839.81;4990834;28;20041;-79
2021/12/12 07:31:56;;;;;;;32.42;16.63;;;;;;;23.86;16.41;98843.94;4974681;28;20487;-79
2021/12/12 07:34:22;;;;;;;33.45;17.60;;;;;;;23.72;16.61;98852.47;4973624;28;20038;-79
2021/12/12 07:36:59;;;;;;;32.03;16.13;;;;;;;23.56;16.60;98843.78;4975277;28;20031;-80
2021/12/12 07:39:27;;;;;;;34.10;16.58;;;;;;;23.45;16.48;98845.06;4975146;28;20039;-79
2021/12/12 07:41:55;;;;;;;41.22;21.10;;;;;;;23.52;16.59;98847.81;4974986;28;20042;-80
2021/12/12 07:44:26;;;;;;;32.92;16.70;;;;;;;23.68;16.41;98845.28;4978609;28;20031;-80
2021/12/12 07:46:52;;;;;;;33.30;16.85;;;;;;;23.97;16.17;98841.81;4992938;28;20478;-79
2021/12/12 07:49:22;;;;;;;34.00;17.13;;;;;;;24.39;16.04;98845.41;4993638;28;20081;-80
2021/12/12 07:51:48;;;;;;;31.83;17.20;;;;;;;24.46;15.71;98843.34;4994221;28;20391;-79
2021/12/12 07:54:14;;;;;;;32.50;17.13;;;;;;;24.34;15.80;98852.28;4994390;28;20057;-80
2021/12/12 07:56:44;;;;;;;43.67;22.02;;;;;;;24.03;16.16;98853.38;4987610;28;20050;-80
2021/12/12 07:59:11;;;;;;;32.20;16.88;;;;;;;23.99;16.54;98855.44;4972948;28;20386;-79
2021/12/12 08:01:40;;;;;;;34.50;17.40;;;;;;;24.12;16.43;98850.13;4980549;28;20034;-80
2021/12/12 08:04:06;;;;;;;36.40;17.95;;;;;;;24.27;16.00;98852.34;4993976;28;20037;-79
2021/12/12 08:06:33;;;;;;;36.03;18.17;;;;;;;24.49;15.76;98861.34;4992528;28;20334;-80
2021/12/12 08:09:00;;;;;;;32.88;18.58;;;;;;;24.78;15.90;98854.22;4993283;28;20483;-80
2021/12/12 08:11:29;;;;;;;36.47;17.15;;;;;;;25.03;15.67;98857.50;4993361;28;20034;-80
2021/12/12 08:13:57;;;;;;;30.75;16.20;;;;;;;24.95;15.42;98869.28;4993624;28;20040;-80
2021/12/12 08:16:25;;;;;;;31.77;17.38;;;;;;;25.05;15.64;98869.13;4992759;28;20030;-80
2021/12/12 08:18:52;;;;;;;30.05;16.52;;;;;;;25.17;15.34;98870.56;4993734;28;20117;-80
2021/12/12 08:21:21;;;;;;;30.38;15.25;;;;;;;25.13;15.70;98873.44;4974347;28;20046;-80
2021/12/12 08:23:47;;;;;;;34.65;17.65;;;;;;;25.31;15.44;98867.56;4974374;28;20035;-80
2021/12/12 08:26:14;;;;;;;30.13;16.83;;;;;;;25.52;15.40;98872.09;4974314;28;20117;-79
2021/12/12 08:28:40;;;;;;;34.10;17.52;;;;;;;25.49;15.34;98870.91;4974188;28;20077;-80
2021/12/12 08:31:07;;;;;;;37.75;18.30;;;;;;;25.53;15.18;98865.25;4974419;28;20101;-79
2021/12/12 08:33:34;;;;;;;39.65;19.38;;;;;;;25.46;15.43;98866.16;4974240;28;20062;-80
2021/12/12 08:36:01;;;;;;;43.47;20.35;;;;;;;25.51;15.35;98865.66;4983295;28;20089;-80
2021/12/12 08:38:27;;;;;;;35.65;17.63;;;;;;;25.58;15.33;98865.56;4993733;28;20109;-80
2021/12/12 08:41:00;;;;;;;38.92;19.27;;;;;;;25.73;15.20;98863.31;4993587;28;20537;-80
2021/12/12 08:43:28;;;;;;;40.38;20.67;;;;;;;25.62;15.25;98865.50;4993550;28;20026;-79
2021/12/12 08:46:03;;;;;;;38.22;19.27;;;;;;;25.34;15.56;98863.91;4993194;28;20038;-79
2021/12/12 08:48:33;;;;;;;37.60;18.15;;;;;;;24.95;15.74;98864.44;4993495;28;20046;-80
2021/12/12 08:51:05;;;;;;;40.93;21.43;;;;;;;24.67;16.10;98864.75;4993496;28;20470;-80
2021/12/12 08:53:32;;;;;;;41.72;22.08;;;;;;;24.24;16.00;98864.44;4993479;28;20100;-79
2021/12/12 08:55:59;;;;;;;32.53;17.45;;;;;;;23.78;16.54;98864.81;4981996;28;20487;-80
2021/12/12 08:58:32;;;;;;;39.63;19.55;;;;;;;23.69;16.91;98878.50;4990682;28;20537;-79
2021/12/12 09:01:03;;;;;;;43.25;20.92;;;;;;;22.79;17.46;98875.03;4993765;28;20089;-79
2021/12/12 09:03:37;;;;;;;45.03;22.10;;;;;;;23.06;17.58;98867.69;4993512;28;20061;-79
2021/12/12 09:06:06;;;;;;;37.35;18.10;;;;;;;23.37;17.13;98866.72;4993623;28;20038;-79
2021/12/12 09:08:58;;;;;;;33.45;17.40;;;;;;;23.44;17.25;98866.69;4993322;28;20101;-79
2021/12/12 09:11:37;;;;;;;34.90;18.75;;;;;;;23.58;17.19;98860.19;4986754;28;20034;-79
2021/12/12 09:14:13;;;;;;;32.47;16.35;;;;;;;23.93;16.54;98866.31;4997380;28;20030;-79
2021/12/12 09:16:56;;;;;;;29.38;15.35;;;;;;;24.65;16.10;98858.75;4997080;28;20034;-79
2021/12/12 09:19:28;;;;;;;35.72;18.10;;;;;;;24.70;16.04;98861.09;4997245;28;20390;-79
2021/12/12 09:22:18;;;;;;;38.92;19.25;;;;;;;24.86;15.74;98854.91;4996310;28;20041;-79
2021/12/12 09:24:51;;;;;;;37.00;18.05;;;;;;;24.35;15.88;98853.88;4977266;28;20561;-79
2021/12/12 09:27:31;;;;;;;33.42;16.70;;;;;;;22.81;17.13;98853.00;4988187;28;20548;-79
2021/12/12 09:30:07;;;;;;;38.70;20.65;;;;;;;22.65;17.42;98850.69;4996678;28;20034;-79
2021/12/12 09:32:44;;;;;;;45.15;23.75;;;;;;;22.16;17.71;98845.19;4996508;28;20026;-79
2021/12/12 09:35:23;;;;;;;39.13;19.90;;;;;;;22.39;17.64;98840.75;4996852;28;20053;-79
2021/12/12 09:38:00;;;;;;;43.00;21.50;;;;;;;22.06;17.96;98835.63;4996810;28;20084;-79
2021/12/12 09:40:44;;;;;;;39.38;19.65;;;;;;;20.90;19.13;98835.50;4996563;28;20048;-79
2021/12/12 09:43:41;;;;;;;56.83;27.83;;;;;;;19.93;20.13;98836.19;4978411;28;20045;-79
2021/12/12 09:46:39;;;;;;;50.83;23.90;;;;;;;20.29;19.89;98834.47;4995732;28;20121;-79
2021/12/12 09:52:49;;;;;;;37.90;18.75;;;;;;;19.46;20.85;98830.69;4996236;28;20061;-79
2021/12/12 09:55:32;;;;;;;50.20;25.58;;;;;;;19.21;21.11;98832.38;4980096;28;20041;-79
2021/12/12 09:58:06;;;;;;;49.83;25.50;;;;;;;19.05;21.12;98835.41;4976752;28;20030;-79
2021/12/12 10:00:44;;;;;;;54.92;28.50;;;;;;;18.39;22.14;98829.84;4981808;28;20387;-79
2021/12/12 10:03:21;;;;;;;53.25;28.23;;;;;;;18.84;21.59;98829.63;4995907;28;20548;-79
2021/12/12 10:06:13;;;;;;;67.85;32.03;;;;;;;19.35;20.99;98818.59;4994514;28;20018;-79
2021/12/12 10:09:01;;;;;;;59.78;29.65;;;;;;;20.10;20.27;98817.97;4996254;28;20036;-79
2021/12/12 10:11:43;;;;;;;55.17;27.70;;;;;;;20.27;20.18;98827.66;4991606;28;20027;-79
2021/12/12 10:14:47;;;;;;;52.17;26.63;;;;;;;21.53;18.84;98840.44;4996148;28;20030;-79
2021/12/12 10:17:33;;;;;;;50.55;26.40;;;;;;;21.55;18.83;98835.22;4995800;28;20168;-79
2021/12/12 10:20:06;;;;;;;54.08;27.38;;;;;;;21.91;18.22;98822.88;4995189;28;20038;-79
2021/12/12 10:23:00;;;;;;;57.22;27.70;;;;;;;22.02;17.89;98820.84;4995945;28;20045;-79
2021/12/12 10:26:00;;;;;;;51.80;26.67;;;;;;;21.79;18.31;98828.84;4993589;28;20030;-79
2021/12/12 10:28:32;;;;;;;61.07;31.07;;;;;;;21.15;18.79;98834.41;4995245;28;20120;-79
2021/12/12 10:31:03;;;;;;;55.33;28.20;;;;;;;20.93;19.05;98840.31;4995820;28;20674;-79
2021/12/12 10:33:46;;;;;;;51.92;26.77;;;;;;;20.76;19.28;98836.25;4995240;28;20443;-79
2021/12/12 10:36:16;;;;;;;59.28;28.80;;;;;;;20.73;19.27;98830.66;4994145;28;20508;-79
2021/12/12 10:39:06;;;;;;;54.28;27.17;;;;;;;21.28;18.64;98837.63;4995125;28;20030;-79
2021/12/12 10:41:41;;;;;;;57.67;29.02;;;;;;;21.53;18.50;98838.44;4993650;28;20037;-79
2021/12/12 10:44:23;;;;;;;51.22;25.17;;;;;;;22.23;17.85;98831.19;4994758;28;20534;-79
2021/12/12 10:47:01;;;;;;;55.65;28.60;;;;;;;21.68;18.14;98823.25;4976630;28;20422;-79
2021/12/12 10:49:48;;;;;;;50.33;26.75;;;;;;;21.16;18.48;98824.03;4993874;28;20129;-80
2021/12/12 10:52:33;;;;;;;43.22;22.60;;;;;;;21.04;19.05;98824.38;4994212;28;20050;-80
2021/12/12 10:55:07;;;;;;;55.22;25.65;;;;;;;21.79;18.10;98828.84;4994902;28;20022;-80
2021/12/12 10:57:36;;;;;;;47.95;25.55;;;;;;;22.00;18.21;98828.84;4995192;28;20128;-79
2021/12/12 11:00:26;;;;;;;52.20;26.48;;;;;;;21.53;18.34;98827.25;4993659;28;20085;-79
2021/12/12 11:03:05;;;;;;;54.42;27.27;;;;;;;21.11;18.48;98822.44;4995087;28;20513;-80
2021/12/12 11:05:55;;;;;;;45.53;22.40;;;;;;;21.08;19.04;98826.00;4993768;28;20034;-79
2021/12/12 11:08:46;;;;;;;53.37;27.80;;;;;;;20.84;19.19;98823.91;4993601;28;20564;-79
2021/12/12 11:11:19;;;;;;;53.75;26.45;;;;;;;20.88;19.38;98821.16;4994560;28;20030;-79
2021/12/12 11:14:14;;;;;;;58.05;27.63;;;;;;;21.62;18.62;98813.69;4993401;28;20037;-79
2021/12/12 11:16:45;;;;;;;52.78;27.40;;;;;;;21.67;18.51;98815.28;4994526;28;20089;-79
2021/12/12 11:19:22;;;;;;;;;;;;;;;22.47;17.90;98808.75;4977601;28;20053;-79
2021/12/12 11:21:52;;;;;;;56.45;26.98;;;;;;;22.43;17.86;98809.94;4994777;28;19968;-79
2021/12/12 11:24:30;;;;;;;46.65;23.85;;;;;;;22.27;17.95;98809.59;4972343;28;20062;-79
2021/12/12 11:27:02;;;;;;;45.35;24.42;;;;;;;22.68;17.91;98805.88;4991498;28;20503;-79
2021/12/12 11:29:33;;;;;;;51.03;25.33;;;;;;;22.65;17.69;98801.09;4994508;28;20046;-79
2021/12/12 11:32:07;;;;;;;47.45;23.35;;;;;;;22.81;17.73;98803.41;4994574;28;20023;-79
2021/12/12 11:34:33;;;;;;;49.25;25.70;;;;;;;23.06;17.24;98809.66;4993024;28;20105;-79
2021/12/12 11:37:05;;;;;;;50.08;22.88;;;;;;;23.66;17.09;98806.47;4991822;28;20102;-79
2021/12/12 11:40:02;;;;;;;57.85;27.40;;;;;;;22.75;17.65;98799.47;4992489;28;20034;-79
2021/12/12 11:42:46;;;;;;;47.05;24.95;;;;;;;22.71;17.56;98797.88;4987886;28;20034;-79
2021/12/12 11:45:27;;;;;;;38.72;20.63;;;;;;;22.84;17.71;98799.00;4993833;28;20042;-79
2021/12/12 11:48:19;;;;;;;47.28;24.60;;;;;;;23.27;17.15;98794.72;4994373;28;20039;-80
2021/12/12 11:51:03;;;;;;;47.08;23.88;;;;;;;23.64;16.83;98792.03;4992874;28;20406;-79
2021/12/12 11:53:35;;;;;;;37.88;19.98;;;;;;;23.42;17.35;98806.66;4975206;28;20039;-79
2021/12/12 11:56:05;;;;;;;43.33;23.05;;;;;;;23.16;17.57;98802.41;4976315;28;20093;-79
2021/12/12 11:58:59;;;;;;;42.53;21.80;;;;;;;22.86;17.82;98791.78;4993919;28;20141;-79
2021/12/12 12:01:38;;;;;;;44.40;23.65;;;;;;;23.44;17.16;98799.41;4988071;28;20042;-80
2021/12/12 12:04:32;;;;;;;45.05;22.58;;;;;;;23.71;17.02;98797.56;4994098;28;20121;-80